Time;durP1;ratioP1;P1;durP2;ratioP2;P2;SDS_P1;SDS_P2;PMS_P1;PMS_P2;Temp;Humidity;BMP_temperature;BMP_pressure;BME280_temperature;BME280_humidity;BME280_pressure;Samples;Min_cycle;Max_cycle;Signal;HPM_P1;HPM_P2
2022/12/28 00:00:15;;;;;;;39.07;3.63;;;1.00;98.00;;;;;;4997897;28;20462;-71
2022/12/28 00:02:42;;;;;;;4.70;2.87;;;1.20;98.00;;;;;;4998268;28;20945;-71
2022/12/28 00:05:10;;;;;;;2.60;2.40;;;1.30;98.00;;;;;;5015021;28;20520;-71
2022/12/28 00:07:37;;;;;;;7.70;3.80;;;1.50;98.00;;;;;;5015372;28;20554;-71
2022/12/28 00:10:06;;;;;;;6.40;2.57;;;1.60;98.00;;;;;;5015111;28;20490;-70
2022/12/28 00:12:33;;;;;;;5.40;2.97;;;1.70;98.00;;;;;;5015173;28;20462;-71
2022/12/28 00:15:01;;;;;;;7.37;3.20;;;1.70;98.00;;;;;;5015317;28;20946;-71
2022/12/28 00:17:28;;;;;;;7.73;3.10;;;1.80;98.00;;;;;;5015312;28;20482;-71
2022/12/28 00:19:56;;;;;;;3.43;2.77;;;1.60;98.00;;;;;;5014852;28;20466;-71
2022/12/28 00:22:23;;;;;;;8.03;3.17;;;1.50;98.00;;;;;;5015024;28;20542;-71
2022/12/28 00:24:50;;;;;;;3.73;2.43;;;1.40;98.00;;;;;;4997370;28;20517;-71
2022/12/28 00:27:17;;;;;;;4.90;2.80;;;1.40;98.00;;;;;;4997349;28;20455;-71
2022/12/28 00:29:45;;;;;;;7.30;3.27;;;1.30;98.00;;;;;;4997301;28;20541;-71
2022/12/28 00:32:13;;;;;;;4.57;2.67;;;1.30;98.00;;;;;;4997361;28;20883;-71
2022/12/28 00:34:40;;;;;;;4.63;3.07;;;1.40;98.00;;;;;;5014706;28;21012;-71
2022/12/28 00:37:07;;;;;;;6.53;3.00;;;1.40;98.00;;;;;;5014571;28;20458;-71
2022/12/28 00:39:34;;;;;;;5.03;3.27;;;1.30;98.00;;;;;;5014536;28;20458;-71
2022/12/28 00:42:01;;;;;;;4.43;2.40;;;1.30;98.00;;;;;;5014691;28;20498;-71
2022/12/28 00:44:28;;;;;;;2.10;2.00;;;1.30;98.00;;;;;;5014472;28;20934;-71
2022/12/28 00:46:55;;;;;;;6.77;3.80;;;1.30;98.00;;;;;;5014494;28;20459;-70
2022/12/28 00:49:24;;;;;;;5.77;2.53;;;1.40;98.00;;;;;;5014224;28;20486;-71
2022/12/28 00:51:51;;;;;;;4.53;2.57;;;1.40;98.00;;;;;;5014213;28;20891;-71
2022/12/28 00:54:18;;;;;;;2.13;1.77;;;1.30;98.00;;;;;;5014454;28;20974;-71
2022/12/28 00:56:45;;;;;;;2.70;2.43;;;1.30;98.00;;;;;;5014142;28;20463;-71
2022/12/28 00:59:13;;;;;;;3.87;3.00;;;1.20;98.00;;;;;;5014496;28;20858;-71
2022/12/28 01:01:40;;;;;;;13.60;4.07;;;1.30;98.00;;;;;;5013832;28;20463;-71
2022/12/28 01:04:08;;;;;;;6.83;1.73;;;1.40;98.00;;;;;;5013995;28;20470;-71
2022/12/28 01:06:36;;;;;;;4.30;2.70;;;1.40;98.00;;;;;;5014213;28;20834;-71
2022/12/28 01:09:03;;;;;;;2.40;2.23;;;1.50;98.00;;;;;;5014229;28;20484;-71
2022/12/28 01:11:31;;;;;;;5.23;2.63;;;1.50;98.00;;;;;;5014302;28;20463;-71
2022/12/28 01:14:00;;;;;;;4.30;2.10;;;1.50;98.00;;;;;;5014275;28;20469;-71
2022/12/28 01:16:29;;;;;;;4.70;2.93;;;1.40;98.00;;;;;;5014069;28;20459;-71
2022/12/28 01:18:58;;;;;;;4.07;2.93;;;1.30;98.00;;;;;;5013753;28;20979;-71
2022/12/28 01:21:28;;;;;;;3.90;2.50;;;1.30;98.00;;;;;;5013890;28;20494;-70
2022/12/28 01:23:59;;;;;;;2.67;2.30;;;1.40;98.00;;;;;;5013801;28;20464;-71
2022/12/28 01:26:28;;;;;;;4.63;3.17;;;1.30;98.00;;;;;;5013705;28;20452;-71
2022/12/28 01:28:55;;;;;;;7.83;4.00;;;1.30;98.00;;;;;;5013645;28;20459;-71
2022/12/28 01:31:22;;;;;;;8.37;2.80;;;1.30;98.00;;;;;;5013365;28;20969;-70
2022/12/28 01:33:49;;;;;;;2.80;1.67;;;1.40;98.00;;;;;;5013823;28;20521;-71
2022/12/28 01:36:19;;;;;;;5.53;2.70;;;1.50;98.00;;;;;;5013423;28;20964;-71
2022/12/28 01:38:47;;;;;;;3.43;2.40;;;1.40;98.00;;;;;;5013527;28;20459;-71
2022/12/28 01:41:18;;;;;;;5.10;2.37;;;1.40;98.00;;;;;;5013365;28;21027;-71
2022/12/28 01:43:48;;;;;;;3.87;3.10;;;1.30;98.00;;;;;;5013458;28;20459;-71
2022/12/28 01:46:18;;;;;;;3.63;2.07;;;1.40;98.00;;;;;;5012899;28;20459;-71
2022/12/28 01:48:50;;;;;;;3.70;2.17;;;1.40;98.00;;;;;;5013329;28;20463;-70
2022/12/28 01:51:19;;;;;;;1.77;1.70;;;1.30;98.00;;;;;;5013304;28;20459;-71
2022/12/28 01:53:47;;;;;;;5.20;2.37;;;1.60;98.00;;;;;;4995912;28;20822;-71
2022/12/28 01:56:16;;;;;;;3.60;2.07;;;1.60;98.00;;;;;;5013031;28;20965;-71
2022/12/28 01:58:43;;;;;;;6.13;2.70;;;1.60;98.00;;;;;;4996002;28;21081;-70
2022/12/28 02:01:11;;;;;;;3.20;2.17;;;1.50;98.00;;;;;;5013181;28;20514;-70
2022/12/28 02:03:38;;;;;;;4.50;2.50;;;1.50;98.00;;;;;;5013270;28;20466;-71
2022/12/28 02:06:09;;;;;;;2.87;2.67;;;1.50;98.00;;;;;;5013172;28;20462;-71
2022/12/28 02:08:43;;;;;;;4.50;2.67;;;1.30;98.00;;;;;;5013206;28;20467;-71
2022/12/28 02:11:13;;;;;;;4.97;2.53;;;1.30;98.00;;;;;;5013151;28;20487;-70
2022/12/28 02:13:43;;;;;;;2.23;1.97;;;1.20;98.00;;;;;;5012967;28;20937;-70
2022/12/28 02:16:11;;;;;;;3.63;1.93;;;1.20;98.00;;;;;;5012890;28;20500;-71
2022/12/28 02:18:39;;;;;;;5.27;2.13;;;1.20;98.00;;;;;;5012870;28;20680;-70
2022/12/28 02:21:23;;;;;;;10.03;2.83;;;1.20;98.00;;;;;;4995559;28;20456;-71
2022/12/28 02:24:22;;;;;;;2.77;2.57;;;1.20;98.00;;;;;;5012591;28;20467;-70
2022/12/28 02:27:00;;;;;;;4.83;2.47;;;1.30;98.00;;;;;;5012723;28;20517;-70
2022/12/28 02:29:53;;;;;;;6.03;1.47;;;1.40;98.00;;;;;;5012363;28;20494;-71
2022/12/28 02:32:31;;;;;;;2.90;1.80;;;1.50;98.00;;;;;;5012574;28;20459;-70
2022/12/28 02:35:07;;;;;;;4.03;2.50;;;1.50;98.00;;;;;;5012478;28;20470;-70
2022/12/28 02:37:40;;;;;;;5.80;2.60;;;1.40;98.00;;;;;;5012258;28;20466;-71
2022/12/28 02:40:14;;;;;;;3.27;2.53;;;1.50;98.00;;;;;;5012403;28;20828;-70
2022/12/28 02:42:44;;;;;;;4.53;2.87;;;1.60;98.00;;;;;;5012531;28;20462;-71
2022/12/28 02:51:03;;;;;;;2.77;2.57;;;1.90;98.00;;;;;;5130597;28;20782;-70
2022/12/28 02:53:56;;;;;;;6.60;2.60;;;1.90;98.00;;;;;;5129742;27;20804;-70
2022/12/28 02:56:30;;;;;;;8.63;2.40;;;1.90;98.00;;;;;;5130108;27;20450;-70
2022/12/28 02:59:20;;;;;;;4.10;2.13;;;1.80;98.00;;;;;;5130344;27;20457;-70
2022/12/28 03:02:07;;;;;;;3.43;2.43;;;1.80;98.00;;;;;;5119632;28;20466;-70
2022/12/28 03:04:51;;;;;;;3.10;2.67;;;1.90;98.00;;;;;;5130599;28;20465;-70
2022/12/28 03:10:17;;;;;;;2.57;2.10;;;1.90;98.00;;;;;;5130301;28;20441;-70
2022/12/28 03:12:49;;;;;;;3.60;2.07;;;1.90;98.00;;;;;;5130125;27;20465;-70
2022/12/28 03:15:28;;;;;;;2.20;1.70;;;1.90;98.00;;;;;;5129710;28;20449;-70
2022/12/28 03:31:53;;;;;;;2.00;1.67;;;1.80;98.00;;;;;;5129495;28;21015;-70
2022/12/28 03:34:20;;;;;;;5.13;2.27;;;1.80;98.00;;;;;;5129314;28;20461;-70
2022/12/28 03:37:02;;;;;;;3.93;2.27;;;1.80;98.00;;;;;;5129275;28;20454;-70
2022/12/28 03:39:36;;;;;;;3.10;2.47;;;1.80;98.00;;;;;;5129368;28;20928;-70
2022/12/28 03:45:06;;;;;;;3.23;2.10;;;2.00;98.00;;;;;;5129346;28;20441;-70
2022/12/28 03:47:35;;;;;;;4.33;2.50;;;2.00;98.00;;;;;;5129241;27;20520;-70
2022/12/28 03:50:02;;;;;;;4.60;2.10;;;1.90;98.00;;;;;;5129319;28;20462;-70
2022/12/28 03:52:32;;;;;;;10.10;2.20;;;2.00;98.00;;;;;;5128084;28;20481;-70
2022/12/28 03:54:59;;;;;;;2.93;2.23;;;2.10;98.00;;;;;;5129121;28;21104;-70
2022/12/28 03:57:26;;;;;;;2.87;2.10;;;2.10;98.00;;;;;;5127124;28;20453;-70
2022/12/28 03:59:53;;;;;;;1.90;1.90;;;2.20;98.00;;;;;;5115357;28;20938;-70
2022/12/28 04:02:20;;;;;;;2.43;1.80;;;2.10;98.00;;;;;;5115512;28;20990;-70
2022/12/28 04:04:48;;;;;;;4.30;2.20;;;2.10;98.00;;;;;;5114353;28;20462;-70
2022/12/28 04:07:16;;;;;;;2.63;1.97;;;2.00;98.00;;;;;;5115358;28;20494;-70
2022/12/28 04:09:44;;;;;;;2.47;2.10;;;2.00;98.00;;;;;;5115333;28;20459;-70
2022/12/28 04:12:13;;;;;;;8.40;2.33;;;1.90;98.00;;;;;;5114582;28;20507;-70
2022/12/28 04:14:40;;;;;;;6.90;2.33;;;2.00;98.00;;;;;;5114499;28;20481;-70
2022/12/28 04:17:07;;;;;;;2.53;2.03;;;1.90;98.00;;;;;;5114499;28;20939;-70
2022/12/28 04:19:34;;;;;;;3.13;1.77;;;1.90;98.00;;;;;;5113693;28;20458;-70
2022/12/28 04:22:01;;;;;;;5.70;1.73;;;1.90;98.00;;;;;;5114862;28;20458;-70
2022/12/28 04:24:28;;;;;;;3.03;1.70;;;2.10;98.00;;;;;;5114740;28;20459;-70
2022/12/28 04:26:57;;;;;;;3.10;2.43;;;2.20;98.00;;;;;;5114669;28;20478;-70
2022/12/28 04:29:24;;;;;;;3.17;2.13;;;2.40;98.00;;;;;;5114618;28;20459;-70
2022/12/28 04:31:51;;;;;;;2.90;2.00;;;2.50;98.00;;;;;;5113286;28;20948;-70
2022/12/28 04:34:18;;;;;;;2.13;2.00;;;2.50;98.00;;;;;;5114698;28;20451;-70
2022/12/28 04:36:46;;;;;;;5.87;3.20;;;2.40;98.00;;;;;;5114547;28;21008;-70
2022/12/28 04:39:14;;;;;;;4.20;3.07;;;2.30;98.00;;;;;;5114566;28;20453;-70
2022/12/28 04:41:41;;;;;;;2.80;2.07;;;2.10;98.00;;;;;;5113255;28;20508;-70
2022/12/28 04:44:10;;;;;;;2.73;1.97;;;2.10;98.00;;;;;;5114435;28;20939;-70
2022/12/28 04:46:37;;;;;;;2.30;2.03;;;2.10;98.00;;;;;;5113037;28;20483;-70
2022/12/28 04:49:04;;;;;;;3.67;2.77;;;2.20;98.00;;;;;;5114358;28;20463;-70
2022/12/28 04:51:34;;;;;;;3.10;2.17;;;2.30;98.00;;;;;;5114280;28;20460;-70
2022/12/28 04:54:01;;;;;;;3.43;1.83;;;2.20;98.00;;;;;;5114488;28;20454;-70
2022/12/28 04:56:28;;;;;;;3.73;2.00;;;2.30;98.00;;;;;;5113145;28;20806;-70
2022/12/28 04:58:57;;;;;;;3.00;2.03;;;2.30;98.00;;;;;;5113171;28;20454;-70
2022/12/28 05:01:26;;;;;;;3.40;1.57;;;2.20;98.00;;;;;;5114093;28;20458;-70
2022/12/28 05:03:54;;;;;;;3.07;1.60;;;2.30;98.00;;;;;;5114586;28;20486;-70
2022/12/28 05:06:23;;;;;;;2.17;2.00;;;2.30;98.00;;;;;;5114258;27;20455;-70
2022/12/28 05:08:51;;;;;;;2.23;1.60;;;2.50;98.00;;;;;;5113965;28;20473;-70
2022/12/28 05:11:19;;;;;;;2.17;1.50;;;2.60;98.00;;;;;;5113111;28;20455;-70
2022/12/28 05:13:47;;;;;;;2.50;2.23;;;2.60;98.00;;;;;;5113841;28;20456;-70
2022/12/28 05:16:15;;;;;;;1.50;1.50;;;2.60;98.00;;;;;;5113765;28;20463;-70
2022/12/28 05:18:44;;;;;;;3.57;2.23;;;2.60;98.00;;;;;;5113486;28;20466;-70
2022/12/28 05:21:17;;;;;;;4.60;3.13;;;2.50;98.00;;;;;;5113633;28;20971;-70
2022/12/28 05:23:45;;;;;;;4.70;2.20;;;2.50;98.00;;;;;;5113624;28;20456;-70
2022/12/28 05:26:14;;;;;;;3.47;2.20;;;2.50;98.00;;;;;;5113560;28;20454;-70
2022/12/28 05:28:41;;;;;;;2.27;2.07;;;2.40;98.00;;;;;;5112183;28;20490;-70
2022/12/28 05:31:13;;;;;;;3.07;2.27;;;2.30;98.00;;;;;;5113402;28;20455;-70
2022/12/28 05:33:46;;;;;;;3.90;2.20;;;2.40;98.00;;;;;;5112133;28;20531;-70
2022/12/28 05:36:15;;;;;;;2.40;1.60;;;2.40;98.00;;;;;;5113330;28;20447;-70
2022/12/28 05:38:42;;;;;;;2.90;1.83;;;2.50;98.00;;;;;;5113509;28;20534;-70
2022/12/28 05:41:14;;;;;;;3.10;1.70;;;2.60;98.00;;;;;;5112765;28;20455;-70
2022/12/28 05:43:41;;;;;;;2.33;2.13;;;2.60;98.00;;;;;;5113418;28;20462;-70
2022/12/28 05:46:10;;;;;;;1.63;1.20;;;2.60;98.00;;;;;;5110798;28;20524;-70
2022/12/28 05:48:40;;;;;;;2.10;1.47;;;2.50;98.00;;;;;;5093000;28;20483;-70
2022/12/28 05:51:10;;;;;;;6.10;1.77;;;2.60;98.00;;;;;;5092823;28;20490;-70
2022/12/28 05:53:39;;;;;;;2.43;1.63;;;2.60;98.00;;;;;;5092956;28;20501;-70
2022/12/28 05:56:08;;;;;;;3.53;2.00;;;2.60;98.00;;;;;;5092812;28;20475;-70
2022/12/28 05:58:35;;;;;;;1.93;1.63;;;2.60;98.00;;;;;;5092991;28;20456;-70
2022/12/28 06:01:07;;;;;;;2.43;1.70;;;2.50;98.00;;;;;;5092816;28;20456;-70
2022/12/28 06:03:35;;;;;;;2.40;1.70;;;2.60;98.00;;;;;;5093025;28;20456;-70
2022/12/28 06:06:08;;;;;;;2.20;1.70;;;2.70;98.00;;;;;;5092798;28;20460;-70
2022/12/28 06:08:36;;;;;;;1.83;1.80;;;2.70;98.00;;;;;;5092739;28;20491;-70
2022/12/28 06:11:06;;;;;;;2.23;1.80;;;2.70;98.00;;;;;;5092234;28;20455;-70
2022/12/28 06:13:34;;;;;;;1.33;1.20;;;2.70;98.00;;;;;;5092749;28;20961;-70
2022/12/28 06:16:05;;;;;;;1.90;1.37;;;2.70;98.00;;;;;;5092323;28;20449;-70
2022/12/28 06:18:33;;;;;;;1.30;1.20;;;2.70;98.00;;;;;;5092215;28;20456;-70
2022/12/28 06:21:04;;;;;;;2.37;2.23;;;2.70;98.00;;;;;;5091951;28;20452;-71
2022/12/28 06:23:33;;;;;;;2.87;1.40;;;2.90;98.00;;;;;;5092182;28;20461;-70
2022/12/28 06:26:01;;;;;;;3.67;2.10;;;2.90;98.00;;;;;;5092369;28;20460;-70
2022/12/28 06:28:28;;;;;;;1.50;1.20;;;3.00;98.00;;;;;;5090871;28;20559;-70
2022/12/28 06:31:02;;;;;;;1.97;1.60;;;3.00;98.00;;;;;;5091358;28;20455;-70
2022/12/28 06:33:30;;;;;;;2.00;1.43;;;2.90;98.00;;;;;;5092400;28;20550;-70
2022/12/28 06:35:57;;;;;;;2.77;1.50;;;3.00;98.00;;;;;;5092121;28;20539;-70
2022/12/28 06:38:24;;;;;;;1.40;1.20;;;2.90;98.00;;;;;;5092121;28;20453;-70
2022/12/28 06:40:53;;;;;;;1.90;1.50;;;2.90;98.00;;;;;;5092072;28;20452;-70
2022/12/28 06:43:20;;;;;;;1.90;1.60;;;2.90;98.00;;;;;;5092057;28;20447;-71
2022/12/28 06:45:55;;;;;;;1.83;1.73;;;2.90;98.00;;;;;;5091921;28;20459;-70
2022/12/28 06:48:22;;;;;;;1.23;1.20;;;3.00;98.00;;;;;;5091864;28;20520;-70
2022/12/28 06:50:57;;;;;;;2.50;1.60;;;3.00;98.00;;;;;;5092016;28;21066;-70
2022/12/28 06:53:24;;;;;;;4.07;2.20;;;3.10;98.00;;;;;;5092063;28;20969;-70
2022/12/28 06:55:57;;;;;;;2.40;1.50;;;2.90;98.00;;;;;;5092122;28;20489;-70
2022/12/28 06:58:25;;;;;;;5.27;1.93;;;2.90;98.00;;;;;;5092109;28;20456;-70
2022/12/28 07:00:53;;;;;;;1.80;1.50;;;2.80;98.00;;;;;;5092055;28;20926;-70
2022/12/28 07:03:22;;;;;;;2.20;1.63;;;2.90;98.00;;;;;;5092206;28;20461;-70
2022/12/28 07:05:49;;;;;;;2.07;1.40;;;2.90;98.00;;;;;;5090759;28;20449;-70
2022/12/28 07:08:18;;;;;;;1.20;1.20;;;2.90;98.00;;;;;;5091629;28;20480;-68
2022/12/28 07:10:45;;;;;;;2.17;1.40;;;3.00;98.00;;;;;;5091668;28;20465;-72
2022/12/28 07:13:20;;;;;;;1.23;1.20;;;3.00;98.00;;;;;;5091838;28;20449;-70
2022/12/28 07:15:47;;;;;;;3.10;1.73;;;2.90;98.00;;;;;;5091660;28;20463;-70
2022/12/28 07:18:14;;;;;;;1.70;1.40;;;3.00;98.00;;;;;;5091778;28;20940;-71
2022/12/28 07:20:41;;;;;;;1.50;1.27;;;3.00;98.00;;;;;;5091680;28;20468;-70
2022/12/28 07:23:08;;;;;;;1.60;1.50;;;3.10;98.00;;;;;;5091649;28;20465;-70
2022/12/28 07:25:36;;;;;;;1.60;1.40;;;3.20;98.00;;;;;;5091631;28;20520;-68
2022/12/28 07:28:03;;;;;;;1.60;1.30;;;3.20;98.00;;;;;;5091523;28;20811;-69
2022/12/28 07:30:32;;;;;;;1.30;1.30;;;3.20;98.00;;;;;;5091606;28;20456;-69
2022/12/28 07:32:59;;;;;;;1.93;1.50;;;3.20;98.00;;;;;;5092319;28;20533;-69
2022/12/28 07:35:28;;;;;;;1.50;1.23;;;3.20;98.00;;;;;;5095409;28;20451;-71
2022/12/28 07:37:56;;;;;;;3.37;1.47;;;3.20;98.00;;;;;;5095434;28;20464;-71
2022/12/28 07:40:23;;;;;;;1.40;1.30;;;3.40;98.00;;;;;;5093948;28;20958;-70
2022/12/28 07:42:50;;;;;;;1.60;1.30;;;3.40;98.00;;;;;;5095437;28;20945;-71
2022/12/28 07:45:17;;;;;;;1.57;1.20;;;3.40;98.00;;;;;;5093970;28;20468;-68
2022/12/28 07:47:46;;;;;;;1.80;1.40;;;3.50;98.00;;;;;;5095108;28;20492;-72
2022/12/28 07:50:13;;;;;;;2.40;1.67;;;3.60;98.00;;;;;;5093887;28;20465;-69
2022/12/28 07:52:47;;;;;;;2.13;1.47;;;3.50;98.00;;;;;;5095161;28;21068;-69
2022/12/28 07:55:14;;;;;;;1.93;1.43;;;3.60;98.00;;;;;;5095080;28;20549;-70
2022/12/28 07:57:41;;;;;;;3.13;1.63;;;3.50;98.00;;;;;;5095132;28;20953;-69
2022/12/28 08:00:09;;;;;;;2.70;1.67;;;3.60;98.00;;;;;;5095124;28;20456;-69
2022/12/28 08:02:36;;;;;;;2.27;1.27;;;3.60;98.00;;;;;;5095242;28;20788;-70
2022/12/28 08:05:06;;;;;;;1.40;1.40;;;3.70;98.00;;;;;;5095135;28;20461;-72
2022/12/28 08:07:33;;;;;;;1.30;1.23;;;3.80;98.00;;;;;;5094572;28;20482;-71
2022/12/28 08:10:00;;;;;;;1.30;1.20;;;3.90;98.00;;;;;;5093629;28;20453;-69
2022/12/28 08:12:27;;;;;;;2.33;1.50;;;3.80;98.00;;;;;;5094569;28;20460;-71
2022/12/28 08:14:56;;;;;;;3.43;1.57;;;3.80;98.00;;;;;;5094483;28;20462;-71
2022/12/28 08:17:22;;;;;;;2.00;1.50;;;3.80;98.00;;;;;;5094649;28;20469;-72
2022/12/28 08:19:50;;;;;;;1.70;1.40;;;3.80;98.00;;;;;;5094483;28;20444;-68
2022/12/28 08:22:18;;;;;;;1.83;1.60;;;3.80;98.00;;;;;;5094610;28;20451;-72
2022/12/28 08:24:45;;;;;;;5.43;2.37;;;3.80;98.00;;;;;;5094595;28;20467;-69
2022/12/28 08:27:12;;;;;;;3.70;2.20;;;4.10;98.00;;;;;;5094258;28;20470;-70
2022/12/28 08:29:39;;;;;;;3.27;1.93;;;4.20;98.00;;;;;;5093845;28;20856;-69
2022/12/28 08:32:08;;;;;;;4.10;2.17;;;4.10;98.00;;;;;;5094235;28;20458;-69
2022/12/28 08:34:35;;;;;;;4.30;2.50;;;3.90;98.00;;;;;;5094440;28;20543;-71
2022/12/28 08:37:02;;;;;;;2.23;1.77;;;3.90;98.00;;;;;;5094176;28;20441;-71
2022/12/28 08:39:31;;;;;;;3.97;3.00;;;3.90;98.00;;;;;;5093016;28;20462;-68
2022/12/28 08:41:58;;;;;;;5.93;2.80;;;3.90;98.00;;;;;;5092965;28;20459;-70
2022/12/28 08:44:26;;;;;;;4.23;2.23;;;3.90;98.00;;;;;;5094000;28;20496;-72
2022/12/28 08:46:55;;;;;;;3.40;2.53;;;4.00;98.00;;;;;;5094120;28;20564;-70
2022/12/28 08:49:25;;;;;;;3.60;2.70;;;4.20;98.00;;;;;;5093957;28;20525;-72
2022/12/28 08:51:52;;;;;;;7.90;2.87;;;4.40;98.00;;;;;;5094156;28;20498;-72
2022/12/28 08:54:19;;;;;;;5.90;3.70;;;4.50;98.00;;;;;;5101307;28;20460;-73
2022/12/28 08:56:48;;;;;;;5.43;2.33;;;4.50;98.00;;;;;;5114450;28;20457;-73
2022/12/28 08:59:17;;;;;;;5.00;2.63;;;4.30;98.00;;;;;;5113470;28;20976;-72
2022/12/28 09:01:48;;;;;;;2.97;2.07;;;4.40;98.00;;;;;;5114467;28;20800;-70
2022/12/28 09:04:18;;;;;;;5.27;2.70;;;4.40;98.00;;;;;;5114362;28;20454;-70
2022/12/28 09:06:48;;;;;;;3.00;2.43;;;4.60;98.00;;;;;;5103658;28;20778;-70
2022/12/28 09:09:18;;;;;;;3.10;2.47;;;4.60;98.00;;;;;;5100368;28;20489;-71
2022/12/28 09:11:47;;;;;;;3.67;2.70;;;4.60;98.00;;;;;;5092047;28;20461;-72
2022/12/28 09:14:16;;;;;;;2.53;2.37;;;4.70;98.00;;;;;;5101212;28;20927;-69
2022/12/28 09:16:43;;;;;;;4.70;2.90;;;4.80;98.00;;;;;;5092960;28;20499;-71
2022/12/28 09:19:13;;;;;;;8.07;2.70;;;5.00;98.00;;;;;;5112024;28;20454;-72
2022/12/28 09:21:41;;;;;;;3.27;2.53;;;5.00;98.00;;;;;;5112513;28;20453;-71
2022/12/28 09:24:08;;;;;;;3.60;2.43;;;5.10;98.00;;;;;;5113736;27;20510;-72
2022/12/28 09:26:37;;;;;;;4.20;2.73;;;5.10;98.00;;;;;;5113611;28;20983;-72
2022/12/28 09:29:07;;;;;;;3.30;2.40;;;5.00;98.00;;;;;;5113622;28;20548;-70
2022/12/28 09:31:37;;;;;;;7.10;2.30;;;5.00;98.00;;;;;;5113256;28;20481;-67
2022/12/28 09:34:04;;;;;;;3.50;2.00;;;5.20;98.00;;;;;;5113033;28;20459;-70
2022/12/28 09:36:33;;;;;;;4.53;2.63;;;5.20;98.00;;;;;;5112183;28;20453;-70
2022/12/28 09:39:02;;;;;;;3.83;2.43;;;5.40;98.00;;;;;;5112200;28;20455;-73
2022/12/28 09:41:32;;;;;;;2.73;2.03;;;5.60;98.00;;;;;;5112600;28;20466;-70
2022/12/28 09:44:17;;;;;;;2.27;1.70;;;5.60;98.00;;;;;;5111343;28;20460;-69
2022/12/28 09:46:50;;;;;;;3.20;2.27;;;5.80;98.00;;;;;;5111373;28;20472;-71
2022/12/28 09:49:18;;;;;;;5.20;2.90;;;5.90;98.00;;;;;;5111204;28;20480;-70
2022/12/28 09:51:52;;;;;;;4.20;1.87;;;6.00;98.00;;;;;;5112462;28;20458;-71
2022/12/28 09:54:20;;;;;;;1.70;1.60;;;6.30;98.00;;;;;;5112499;28;20457;-69
2022/12/28 09:56:48;;;;;;;4.87;2.40;;;6.40;98.00;;;;;;5110775;27;20489;-69
2022/12/28 09:59:20;;;;;;;4.90;2.50;;;6.50;98.00;;;;;;5110797;28;20510;-68
2022/12/28 10:01:55;;;;;;;5.20;3.30;;;6.60;98.00;;;;;;5112621;28;20452;-71
2022/12/28 10:04:23;;;;;;;3.30;2.43;;;6.60;98.00;;;;;;5111708;28;20945;-70
2022/12/28 10:06:50;;;;;;;4.13;2.33;;;6.70;98.00;;;;;;5112267;28;20459;-70
2022/12/28 10:09:24;;;;;;;4.03;2.63;;;6.70;98.00;;;;;;5112210;28;20517;-70
2022/12/28 10:11:51;;;;;;;5.73;2.90;;;6.90;98.00;;;;;;5112301;28;20465;-72
2022/12/28 10:14:20;;;;;;;4.57;2.20;;;6.90;98.00;;;;;;5112084;28;20453;-69
2022/12/28 10:16:49;;;;;;;4.67;2.53;;;7.00;98.00;;;;;;5112051;28;20504;-70
2022/12/28 10:19:18;;;;;;;2.43;2.03;;;7.10;98.00;;;;;;5111977;28;20450;-68
2022/12/28 10:21:47;;;;;;;1.67;1.60;;;7.00;98.00;;;;;;5110752;28;20516;-71
2022/12/28 10:24:14;;;;;;;2.77;1.73;;;7.10;98.00;;;;;;5112075;28;20487;-69
2022/12/28 10:26:44;;;;;;;2.17;1.80;;;7.20;98.00;;;;;;5112146;28;20452;-69
2022/12/28 10:29:17;;;;;;;7.83;2.60;;;7.30;98.00;;;;;;5112474;28;21019;-69
2022/12/28 10:31:44;;;;;;;2.50;1.70;;;7.50;98.00;;;;;;5112576;28;20874;-72
2022/12/28 10:34:19;;;;;;;2.83;2.10;;;7.50;98.00;;;;;;5112624;28;20455;-71
2022/12/28 10:36:47;;;;;;;4.63;2.10;;;7.70;98.00;;;;;;5111918;28;20882;-69
2022/12/28 10:39:24;;;;;;;3.60;1.93;;;7.80;98.00;;;;;;5111821;28;20819;-71
2022/12/28 10:41:53;;;;;;;4.90;2.57;;;7.90;98.00;;;;;;5111727;28;20457;-72
2022/12/28 10:44:25;;;;;;;4.97;2.10;;;8.00;98.00;;;;;;5111737;28;20643;-68
2022/12/28 10:46:59;;;;;;;3.03;2.50;;;8.10;98.00;;;;;;5110418;28;20845;-71
2022/12/28 10:49:31;;;;;;;3.23;2.03;;;8.10;98.00;;;;;;5111457;28;20487;-69
2022/12/28 10:52:05;;;;;;;5.40;2.47;;;8.10;98.00;;;;;;5111523;28;20934;-71
2022/12/28 10:54:34;;;;;;;3.37;2.50;;;8.10;98.00;;;;;;5111787;28;20457;-69
2022/12/28 10:57:02;;;;;;;6.67;3.83;;;8.20;98.00;;;;;;5111639;28;20461;-68
2022/12/28 10:59:31;;;;;;;6.73;2.40;;;8.20;98.00;;;;;;5111664;28;20453;-69
2022/12/28 11:02:31;;;;;;;3.77;2.80;;;8.30;98.00;;;;;;5111994;28;21007;-70
2022/12/28 11:05:01;;;;;;;3.53;2.70;;;8.30;98.00;;;;;;5111709;28;20453;-71
2022/12/28 11:07:31;;;;;;;3.83;2.50;;;8.40;98.00;;;;;;5111487;28;20470;-70
2022/12/28 11:10:25;;;;;;;5.93;2.60;;;8.40;98.00;;;;;;5115663;28;20501;-69
2022/12/28 11:12:53;;;;;;;5.93;2.13;;;8.50;98.00;;;;;;5115883;28;20473;-70
2022/12/28 11:15:22;;;;;;;2.23;1.93;;;8.60;98.00;;;;;;5115604;28;20472;-69
2022/12/28 11:17:55;;;;;;;3.40;2.10;;;8.80;98.00;;;;;;5115425;28;20956;-64
2022/12/28 11:20:29;;;;;;;2.17;1.93;;;8.90;98.00;;;;;;5114906;28;20561;-68
2022/12/28 11:22:57;;;;;;;4.10;2.10;;;8.90;98.00;;;;;;5113895;28;20546;-68
2022/12/28 11:25:32;;;;;;;4.77;2.00;;;9.00;98.00;;;;;;5115125;28;20947;-71
2022/12/28 11:27:59;;;;;;;4.67;2.50;;;9.10;98.00;;;;;;5115347;28;20545;-69
2022/12/28 11:30:27;;;;;;;2.07;1.60;;;9.30;98.00;;;;;;5115248;28;20541;-69
2022/12/28 11:32:57;;;;;;;1.93;1.60;;;9.30;98.00;;;;;;5115320;28;20465;-70
2022/12/28 11:35:28;;;;;;;2.20;1.70;;;9.40;98.00;;;;;;5113894;28;20455;-72
2022/12/28 11:37:58;;;;;;;2.03;1.63;;;9.50;98.00;;;;;;5114957;28;20453;-71
2022/12/28 11:40:49;;;;;;;2.20;1.60;;;9.70;98.00;;;;;;5114977;28;20459;-71
2022/12/28 11:43:54;;;;;;;1.50;1.47;;;9.90;98.00;;;;;;5114978;28;20520;-69
2022/12/28 11:46:41;;;;;;;2.80;1.60;;;9.90;98.00;;;;;;5114522;27;20458;-73
2022/12/28 11:49:28;;;;;;;1.90;1.70;;;10.00;98.00;;;;;;5114623;28;20501;-69
2022/12/28 11:52:44;;;;;;;2.30;1.80;;;10.00;98.00;;;;;;5114796;28;20463;-71
2022/12/28 11:55:47;;;;;;;2.23;1.60;;;10.30;98.00;;;;;;5114838;28;20528;-69
2022/12/28 11:58:54;;;;;;;2.97;1.60;;;10.50;98.00;;;;;;5114852;28;20541;-74
2022/12/28 12:01:43;;;;;;;2.50;1.83;;;10.60;98.00;;;;;;5113863;28;20546;-70
2022/12/28 12:04:32;;;;;;;1.47;1.43;;;10.60;98.00;;;;;;5114688;28;20456;-72
2022/12/28 12:07:24;;;;;;;1.83;1.60;;;10.70;98.00;;;;;;5114829;28;20916;-72
2022/12/28 12:10:32;;;;;;;4.27;1.73;;;10.70;98.00;;;;;;5114441;28;20498;-71
2022/12/28 12:13:01;;;;;;;1.40;1.40;;;10.80;98.00;;;;;;5113083;28;20469;-70
2022/12/28 12:15:38;;;;;;;2.10;1.57;;;10.80;98.00;;;;;;5114372;28;20873;-70
2022/12/28 12:18:08;;;;;;;1.63;1.57;;;10.70;98.00;;;;;;5113200;28;20478;-70
2022/12/28 12:20:48;;;;;;;2.10;1.60;;;10.70;98.00;;;;;;5113674;28;20591;-70
2022/12/28 12:23:42;;;;;;;3.83;1.80;;;10.70;98.00;;;;;;5114210;28;20458;-70
2022/12/28 12:26:31;;;;;;;2.23;1.80;;;11.00;98.00;;;;;;5114134;28;20462;-73
2022/12/28 12:29:03;;;;;;;3.33;1.70;;;11.20;98.00;;;;;;5114073;28;20486;-70
2022/12/28 12:31:43;;;;;;;3.27;1.60;;;11.40;98.00;;;;;;5100576;28;20468;-69
2022/12/28 12:34:15;;;;;;;2.07;1.63;;;11.40;98.00;;;;;;5089902;28;20452;-73
2022/12/28 12:37:14;;;;;;;2.60;1.50;;;11.40;98.00;;;;;;5100011;28;20522;-69
2022/12/28 12:40:03;;;;;;;2.90;2.20;;;11.30;98.00;;;;;;5095776;28;20959;-72
2022/12/28 12:42:44;;;;;;;1.90;1.37;;;11.20;98.00;;;;;;5100702;28;20494;-73
2022/12/28 12:45:21;;;;;;;2.43;1.60;;;11.30;98.00;;;;;;5110348;28;20963;-71
2022/12/28 12:48:02;;;;;;;1.77;1.50;;;11.40;98.00;;;;;;5099266;28;20471;-70
2022/12/28 12:50:46;;;;;;;2.60;1.73;;;11.40;98.00;;;;;;5089720;28;20492;-69
2022/12/28 12:53:26;;;;;;;2.83;1.83;;;11.70;98.00;;;;;;5101750;28;20934;-72
2022/12/28 12:56:00;;;;;;;1.90;1.63;;;11.90;98.00;;;;;;5106976;28;20543;-72
2022/12/28 12:58:35;;;;;;;2.70;1.60;;;12.00;98.00;;;;;;5111306;28;20454;-68
2022/12/28 13:01:27;;;;;;;2.40;1.70;;;11.90;98.00;;;;;;5092017;28;20455;-69
2022/12/28 13:03:56;;;;;;;2.57;1.60;;;11.80;98.00;;;;;;5092225;28;20916;-71
2022/12/28 13:06:26;;;;;;;1.97;1.50;;;11.70;98.00;;;;;;5092865;28;20458;-72
2022/12/28 13:08:56;;;;;;;2.87;1.50;;;11.60;98.00;;;;;;5100269;28;20467;-73
2022/12/28 13:11:24;;;;;;;1.60;1.50;;;11.50;98.00;;;;;;5108946;28;20461;-71
2022/12/28 13:13:54;;;;;;;3.93;2.03;;;11.30;98.00;;;;;;5097897;28;20545;-72
2022/12/28 13:16:24;;;;;;;2.10;1.63;;;11.30;98.00;;;;;;5103366;28;20468;-73
2022/12/28 13:18:57;;;;;;;2.13;1.37;;;11.20;98.00;;;;;;5097100;28;20821;-71
2022/12/28 13:21:25;;;;;;;2.23;1.60;;;11.20;98.00;;;;;;5101504;28;20463;-73
2022/12/28 13:23:53;;;;;;;1.90;1.70;;;11.00;98.00;;;;;;5093630;28;20451;-71
2022/12/28 13:26:26;;;;;;;3.13;1.67;;;11.00;98.00;;;;;;5099848;28;20455;-70
2022/12/28 13:28:58;;;;;;;2.33;1.50;;;11.00;98.00;;;;;;5096827;28;20514;-71
2022/12/28 13:31:32;;;;;;;2.47;1.37;;;10.90;98.00;;;;;;5095354;28;20555;-73
2022/12/28 13:34:04;;;;;;;1.80;1.40;;;10.90;98.00;;;;;;5110075;28;20534;-72
2022/12/28 13:36:32;;;;;;;3.77;1.57;;;10.80;98.00;;;;;;5096279;28;20458;-71
2022/12/28 13:39:12;;;;;;;2.43;1.60;;;10.70;98.00;;;;;;5101404;28;20447;-71
2022/12/28 13:41:48;;;;;;;2.10;1.40;;;10.60;98.00;;;;;;5100357;28;20460;-71